sensor_id;sensor_type;location;lat;lon;timestamp;P1;durP1;ratioP1;P2;durP2;ratioP2
4397;SDS011;2213;49.720;7.296;2023-12-14T00:01:23;12.10;;;5.33;;
4397;SDS011;2213;49.720;7.296;2023-12-14T00:03:52;8.93;;;4.90;;
4397;SDS011;2213;49.720;7.296;2023-12-14T00:06:21;10.70;;;5.30;;
4397;SDS011;2213;49.720;7.296;2023-12-14T00:08:49;8.90;;;5.10;;
4397;SDS011;2213;49.720;7.296;2023-12-14T00:11:19;10.00;;;5.03;;
4397;SDS011;2213;49.720;7.296;2023-12-14T00:13:48;10.40;;;5.40;;
4397;SDS011;2213;49.720;7.296;2023-12-14T00:16:16;9.23;;;4.83;;
4397;SDS011;2213;49.720;7.296;2023-12-14T00:18:45;11.27;;;5.00;;
4397;SDS011;2213;49.720;7.296;2023-12-14T00:21:13;13.47;;;4.43;;
4397;SDS011;2213;49.720;7.296;2023-12-14T00:23:42;8.90;;;4.80;;
4397;SDS011;2213;49.720;7.296;2023-12-14T00:26:11;11.60;;;5.47;;
4397;SDS011;2213;49.720;7.296;2023-12-14T00:28:41;11.10;;;4.90;;
4397;SDS011;2213;49.720;7.296;2023-12-14T00:31:09;6.90;;;5.10;;
4397;SDS011;2213;49.720;7.296;2023-12-14T00:33:37;12.03;;;5.17;;
4397;SDS011;2213;49.720;7.296;2023-12-14T00:36:07;8.67;;;5.20;;
4397;SDS011;2213;49.720;7.296;2023-12-14T00:38:36;8.33;;;5.07;;
4397;SDS011;2213;49.720;7.296;2023-12-14T00:41:06;8.50;;;5.20;;
4397;SDS011;2213;49.720;7.296;2023-12-14T00:43:34;13.50;;;4.80;;
4397;SDS011;2213;49.720;7.296;2023-12-14T00:46:06;8.97;;;5.47;;
4397;SDS011;2213;49.720;7.296;2023-12-14T00:48:35;8.90;;;3.93;;
4397;SDS011;2213;49.720;7.296;2023-12-14T00:51:04;10.73;;;4.50;;
4397;SDS011;2213;49.720;7.296;2023-12-14T00:53:33;20.50;;;5.67;;
4397;SDS011;2213;49.720;7.296;2023-12-14T00:56:01;7.80;;;4.93;;
4397;SDS011;2213;49.720;7.296;2023-12-14T00:58:31;8.53;;;5.30;;
4397;SDS011;2213;49.720;7.296;2023-12-14T01:00:59;7.13;;;4.73;;
4397;SDS011;2213;49.720;7.296;2023-12-14T01:03:29;11.23;;;5.40;;
4397;SDS011;2213;49.720;7.296;2023-12-14T01:05:58;9.60;;;5.20;;
4397;SDS011;2213;49.720;7.296;2023-12-14T01:08:27;8.27;;;4.73;;
4397;SDS011;2213;49.720;7.296;2023-12-14T01:10:56;9.50;;;5.37;;
4397;SDS011;2213;49.720;7.296;2023-12-14T01:13:24;9.43;;;5.27;;
4397;SDS011;2213;49.720;7.296;2023-12-14T01:15:53;13.70;;;4.63;;
4397;SDS011;2213;49.720;7.296;2023-12-14T01:18:21;9.30;;;4.73;;
4397;SDS011;2213;49.720;7.296;2023-12-14T01:20:52;8.33;;;5.43;;
4397;SDS011;2213;49.720;7.296;2023-12-14T01:23:21;6.00;;;4.50;;
4397;SDS011;2213;49.720;7.296;2023-12-14T01:25:49;7.50;;;4.93;;
4397;SDS011;2213;49.720;7.296;2023-12-14T01:28:18;8.93;;;5.27;;
4397;SDS011;2213;49.720;7.296;2023-12-14T01:30:46;8.10;;;4.87;;
4397;SDS011;2213;49.720;7.296;2023-12-14T01:33:15;14.90;;;5.07;;
4397;SDS011;2213;49.720;7.296;2023-12-14T01:35:44;8.00;;;5.10;;
4397;SDS011;2213;49.720;7.296;2023-12-14T01:38:14;7.80;;;4.30;;
4397;SDS011;2213;49.720;7.296;2023-12-14T01:40:42;7.83;;;4.60;;
4397;SDS011;2213;49.720;7.296;2023-12-14T01:43:11;6.87;;;4.73;;
4397;SDS011;2213;49.720;7.296;2023-12-14T01:45:40;7.47;;;5.30;;
4397;SDS011;2213;49.720;7.296;2023-12-14T01:48:09;10.13;;;4.83;;
4397;SDS011;2213;49.720;7.296;2023-12-14T01:50:38;7.20;;;4.40;;
4397;SDS011;2213;49.720;7.296;2023-12-14T01:53:06;8.07;;;4.83;;
4397;SDS011;2213;49.720;7.296;2023-12-14T01:55:36;5.50;;;4.30;;
4397;SDS011;2213;49.720;7.296;2023-12-14T01:58:05;10.77;;;5.00;;
4397;SDS011;2213;49.720;7.296;2023-12-14T02:00:35;10.57;;;4.90;;
4397;SDS011;2213;49.720;7.296;2023-12-14T02:03:10;11.53;;;5.43;;
4397;SDS011;2213;49.720;7.296;2023-12-14T02:05:39;8.57;;;4.77;;
4397;SDS011;2213;49.720;7.296;2023-12-14T02:08:08;18.60;;;5.03;;
4397;SDS011;2213;49.720;7.296;2023-12-14T02:10:38;8.80;;;4.47;;
4397;SDS011;2213;49.720;7.296;2023-12-14T02:13:07;8.43;;;5.10;;
4397;SDS011;2213;49.720;7.296;2023-12-14T02:15:36;10.70;;;4.70;;
4397;SDS011;2213;49.720;7.296;2023-12-14T02:18:05;9.17;;;5.40;;
4397;SDS011;2213;49.720;7.296;2023-12-14T02:20:33;7.57;;;4.67;;
4397;SDS011;2213;49.720;7.296;2023-12-14T02:23:03;11.57;;;4.20;;
4397;SDS011;2213;49.720;7.296;2023-12-14T02:25:32;13.80;;;5.40;;
4397;SDS011;2213;49.720;7.296;2023-12-14T02:28:01;9.47;;;5.50;;
4397;SDS011;2213;49.720;7.296;2023-12-14T02:30:29;7.77;;;4.80;;
4397;SDS011;2213;49.720;7.296;2023-12-14T02:32:58;9.33;;;4.33;;
4397;SDS011;2213;49.720;7.296;2023-12-14T02:35:26;9.33;;;5.33;;
4397;SDS011;2213;49.720;7.296;2023-12-14T02:37:54;6.50;;;4.70;;
4397;SDS011;2213;49.720;7.296;2023-12-14T02:40:25;8.60;;;4.90;;
4397;SDS011;2213;49.720;7.296;2023-12-14T02:42:53;11.50;;;5.00;;
4397;SDS011;2213;49.720;7.296;2023-12-14T02:45:22;14.83;;;5.77;;
4397;SDS011;2213;49.720;7.296;2023-12-14T02:47:50;9.70;;;4.57;;
4397;SDS011;2213;49.720;7.296;2023-12-14T02:50:20;13.03;;;5.37;;
4397;SDS011;2213;49.720;7.296;2023-12-14T02:52:49;7.40;;;4.77;;
4397;SDS011;2213;49.720;7.296;2023-12-14T02:55:18;18.50;;;5.83;;
4397;SDS011;2213;49.720;7.296;2023-12-14T02:57:48;6.63;;;4.90;;
4397;SDS011;2213;49.720;7.296;2023-12-14T03:00:17;8.27;;;4.80;;
4397;SDS011;2213;49.720;7.296;2023-12-14T03:02:46;9.17;;;4.23;;
4397;SDS011;2213;49.720;7.296;2023-12-14T03:05:15;8.90;;;4.83;;
4397;SDS011;2213;49.720;7.296;2023-12-14T03:07:44;5.53;;;4.57;;
4397;SDS011;2213;49.720;7.296;2023-12-14T03:10:13;10.00;;;4.80;;
4397;SDS011;2213;49.720;7.296;2023-12-14T03:12:41;9.80;;;4.60;;
4397;SDS011;2213;49.720;7.296;2023-12-14T03:15:11;8.40;;;4.93;;
4397;SDS011;2213;49.720;7.296;2023-12-14T03:17:40;9.13;;;4.60;;
4397;SDS011;2213;49.720;7.296;2023-12-14T03:20:09;6.40;;;4.53;;
4397;SDS011;2213;49.720;7.296;2023-12-14T03:22:40;11.20;;;4.57;;
4397;SDS011;2213;49.720;7.296;2023-12-14T03:25:09;5.10;;;4.07;;
4397;SDS011;2213;49.720;7.296;2023-12-14T03:27:38;9.57;;;4.90;;
4397;SDS011;2213;49.720;7.296;2023-12-14T03:30:07;15.23;;;4.77;;
4397;SDS011;2213;49.720;7.296;2023-12-14T03:32:38;10.13;;;4.37;;
4397;SDS011;2213;49.720;7.296;2023-12-14T03:35:07;7.40;;;4.20;;
4397;SDS011;2213;49.720;7.296;2023-12-14T03:37:36;6.77;;;4.17;;
4397;SDS011;2213;49.720;7.296;2023-12-14T03:40:05;9.30;;;4.60;;
4397;SDS011;2213;49.720;7.296;2023-12-14T03:42:35;6.07;;;4.23;;
4397;SDS011;2213;49.720;7.296;2023-12-14T03:45:04;6.13;;;4.40;;
4397;SDS011;2213;49.720;7.296;2023-12-14T03:47:34;5.97;;;3.90;;
4397;SDS011;2213;49.720;7.296;2023-12-14T03:50:05;5.10;;;3.80;;
4397;SDS011;2213;49.720;7.296;2023-12-14T03:52:35;9.43;;;4.07;;
4397;SDS011;2213;49.720;7.296;2023-12-14T03:55:05;11.37;;;5.20;;
4397;SDS011;2213;49.720;7.296;2023-12-14T03:57:35;8.33;;;4.60;;
4397;SDS011;2213;49.720;7.296;2023-12-14T04:00:04;15.40;;;5.13;;
4397;SDS011;2213;49.720;7.296;2023-12-14T04:02:35;13.93;;;4.97;;
4397;SDS011;2213;49.720;7.296;2023-12-14T04:05:06;7.00;;;5.20;;
4397;SDS011;2213;49.720;7.296;2023-12-14T04:07:36;12.53;;;4.73;;
4397;SDS011;2213;49.720;7.296;2023-12-14T04:10:07;6.73;;;4.07;;
4397;SDS011;2213;49.720;7.296;2023-12-14T04:12:37;7.50;;;4.60;;
4397;SDS011;2213;49.720;7.296;2023-12-14T04:15:07;10.60;;;3.90;;
4397;SDS011;2213;49.720;7.296;2023-12-14T04:17:38;8.03;;;4.33;;
4397;SDS011;2213;49.720;7.296;2023-12-14T04:20:08;11.27;;;4.80;;
4397;SDS011;2213;49.720;7.296;2023-12-14T04:22:38;5.10;;;4.30;;
4397;SDS011;2213;49.720;7.296;2023-12-14T04:25:06;6.17;;;3.90;;
4397;SDS011;2213;49.720;7.296;2023-12-14T04:27:35;7.03;;;4.70;;
4397;SDS011;2213;49.720;7.296;2023-12-14T04:30:04;6.93;;;4.47;;
4397;SDS011;2213;49.720;7.296;2023-12-14T04:32:37;6.83;;;4.10;;
4397;SDS011;2213;49.720;7.296;2023-12-14T04:35:06;6.53;;;4.27;;
4397;SDS011;2213;49.720;7.296;2023-12-14T04:37:36;8.00;;;3.90;;
4397;SDS011;2213;49.720;7.296;2023-12-14T04:40:05;6.27;;;4.47;;
4397;SDS011;2213;49.720;7.296;2023-12-14T04:42:36;7.77;;;3.97;;
4397;SDS011;2213;49.720;7.296;2023-12-14T04:45:05;16.97;;;4.87;;
4397;SDS011;2213;49.720;7.296;2023-12-14T04:47:35;12.70;;;4.97;;
4397;SDS011;2213;49.720;7.296;2023-12-14T04:50:04;10.97;;;7.67;;
4397;SDS011;2213;49.720;7.296;2023-12-14T04:52:35;13.07;;;4.53;;
4397;SDS011;2213;49.720;7.296;2023-12-14T04:55:05;6.60;;;4.30;;
4397;SDS011;2213;49.720;7.296;2023-12-14T04:57:35;5.67;;;4.17;;
4397;SDS011;2213;49.720;7.296;2023-12-14T05:00:04;9.37;;;4.93;;
4397;SDS011;2213;49.720;7.296;2023-12-14T05:02:34;7.57;;;4.23;;
4397;SDS011;2213;49.720;7.296;2023-12-14T05:05:03;9.77;;;4.63;;
4397;SDS011;2213;49.720;7.296;2023-12-14T05:07:32;6.40;;;3.90;;
4397;SDS011;2213;49.720;7.296;2023-12-14T05:10:03;11.63;;;3.73;;
4397;SDS011;2213;49.720;7.296;2023-12-14T05:12:32;9.23;;;4.60;;
4397;SDS011;2213;49.720;7.296;2023-12-14T05:15:01;7.33;;;4.30;;
4397;SDS011;2213;49.720;7.296;2023-12-14T05:17:31;8.57;;;4.40;;
4397;SDS011;2213;49.720;7.296;2023-12-14T05:20:01;6.83;;;4.00;;
4397;SDS011;2213;49.720;7.296;2023-12-14T05:22:30;11.17;;;5.37;;
4397;SDS011;2213;49.720;7.296;2023-12-14T05:24:59;7.13;;;4.80;;
4397;SDS011;2213;49.720;7.296;2023-12-14T05:27:29;9.73;;;4.40;;
4397;SDS011;2213;49.720;7.296;2023-12-14T05:29:58;8.00;;;4.90;;
4397;SDS011;2213;49.720;7.296;2023-12-14T05:32:26;13.03;;;5.10;;
4397;SDS011;2213;49.720;7.296;2023-12-14T05:34:55;11.57;;;4.60;;
4397;SDS011;2213;49.720;7.296;2023-12-14T05:37:24;17.20;;;4.47;;
4397;SDS011;2213;49.720;7.296;2023-12-14T05:39:52;13.80;;;5.60;;
4397;SDS011;2213;49.720;7.296;2023-12-14T05:42:21;15.67;;;4.77;;
4397;SDS011;2213;49.720;7.296;2023-12-14T05:44:52;25.10;;;5.40;;
4397;SDS011;2213;49.720;7.296;2023-12-14T05:47:21;6.77;;;4.77;;
4397;SDS011;2213;49.720;7.296;2023-12-14T05:49:49;13.93;;;5.23;;
4397;SDS011;2213;49.720;7.296;2023-12-14T05:52:18;15.43;;;5.87;;
4397;SDS011;2213;49.720;7.296;2023-12-14T05:54:47;18.20;;;5.80;;
4397;SDS011;2213;49.720;7.296;2023-12-14T05:57:16;8.57;;;5.33;;
4397;SDS011;2213;49.720;7.296;2023-12-14T05:59:45;10.50;;;5.13;;
4397;SDS011;2213;49.720;7.296;2023-12-14T06:02:15;13.90;;;5.00;;
4397;SDS011;2213;49.720;7.296;2023-12-14T06:04:43;13.90;;;6.10;;
4397;SDS011;2213;49.720;7.296;2023-12-14T06:07:14;12.00;;;5.40;;
4397;SDS011;2213;49.720;7.296;2023-12-14T06:09:43;9.50;;;5.37;;
4397;SDS011;2213;49.720;7.296;2023-12-14T06:12:12;14.40;;;5.60;;
4397;SDS011;2213;49.720;7.296;2023-12-14T06:14:41;8.90;;;5.03;;
4397;SDS011;2213;49.720;7.296;2023-12-14T06:17:11;12.77;;;4.40;;
4397;SDS011;2213;49.720;7.296;2023-12-14T06:19:41;14.93;;;6.27;;
4397;SDS011;2213;49.720;7.296;2023-12-14T06:22:10;9.20;;;5.53;;
4397;SDS011;2213;49.720;7.296;2023-12-14T06:24:39;14.37;;;4.87;;
4397;SDS011;2213;49.720;7.296;2023-12-14T06:27:08;7.53;;;4.53;;
4397;SDS011;2213;49.720;7.296;2023-12-14T06:29:36;8.37;;;4.97;;
4397;SDS011;2213;49.720;7.296;2023-12-14T06:32:06;9.60;;;5.73;;
4397;SDS011;2213;49.720;7.296;2023-12-14T06:34:34;15.67;;;5.50;;
4397;SDS011;2213;49.720;7.296;2023-12-14T06:37:04;17.57;;;6.20;;
4397;SDS011;2213;49.720;7.296;2023-12-14T06:39:33;13.20;;;5.50;;
4397;SDS011;2213;49.720;7.296;2023-12-14T06:42:02;23.60;;;5.97;;
4397;SDS011;2213;49.720;7.296;2023-12-14T06:44:31;9.13;;;5.67;;
4397;SDS011;2213;49.720;7.296;2023-12-14T06:47:03;14.40;;;5.60;;
4397;SDS011;2213;49.720;7.296;2023-12-14T06:49:32;8.13;;;5.10;;
4397;SDS011;2213;49.720;7.296;2023-12-14T06:52:01;10.57;;;5.60;;
4397;SDS011;2213;49.720;7.296;2023-12-14T06:54:32;9.47;;;6.17;;
4397;SDS011;2213;49.720;7.296;2023-12-14T06:57:00;15.13;;;5.63;;
4397;SDS011;2213;49.720;7.296;2023-12-14T06:59:29;18.80;;;6.00;;
4397;SDS011;2213;49.720;7.296;2023-12-14T07:01:58;13.33;;;5.70;;
4397;SDS011;2213;49.720;7.296;2023-12-14T07:04:27;10.30;;;4.97;;
4397;SDS011;2213;49.720;7.296;2023-12-14T07:06:56;11.13;;;5.37;;
4397;SDS011;2213;49.720;7.296;2023-12-14T07:09:24;11.90;;;4.53;;
4397;SDS011;2213;49.720;7.296;2023-12-14T07:11:54;8.70;;;5.70;;
4397;SDS011;2213;49.720;7.296;2023-12-14T07:14:23;15.30;;;5.97;;
4397;SDS011;2213;49.720;7.296;2023-12-14T07:16:52;8.93;;;5.20;;
4397;SDS011;2213;49.720;7.296;2023-12-14T07:19:20;10.10;;;5.87;;
4397;SDS011;2213;49.720;7.296;2023-12-14T07:21:50;11.20;;;4.87;;
4397;SDS011;2213;49.720;7.296;2023-12-14T07:24:18;14.10;;;5.57;;
4397;SDS011;2213;49.720;7.296;2023-12-14T07:26:48;10.13;;;5.83;;
4397;SDS011;2213;49.720;7.296;2023-12-14T07:29:19;12.27;;;6.73;;
4397;SDS011;2213;49.720;7.296;2023-12-14T07:31:48;9.10;;;5.57;;
4397;SDS011;2213;49.720;7.296;2023-12-14T07:34:17;8.47;;;4.70;;
4397;SDS011;2213;49.720;7.296;2023-12-14T07:36:46;9.03;;;5.67;;
4397;SDS011;2213;49.720;7.296;2023-12-14T07:39:15;11.77;;;5.30;;
4397;SDS011;2213;49.720;7.296;2023-12-14T07:41:44;10.33;;;5.30;;
4397;SDS011;2213;49.720;7.296;2023-12-14T07:44:12;8.57;;;5.23;;
4397;SDS011;2213;49.720;7.296;2023-12-14T07:46:42;10.17;;;5.43;;
4397;SDS011;2213;49.720;7.296;2023-12-14T07:49:11;18.00;;;5.90;;
4397;SDS011;2213;49.720;7.296;2023-12-14T07:51:40;9.60;;;5.30;;
4397;SDS011;2213;49.720;7.296;2023-12-14T07:54:09;7.07;;;5.47;;
4397;SDS011;2213;49.720;7.296;2023-12-14T07:56:37;11.93;;;5.27;;
4397;SDS011;2213;49.720;7.296;2023-12-14T07:59:06;10.13;;;5.73;;
4397;SDS011;2213;49.720;7.296;2023-12-14T08:01:36;8.03;;;5.63;;
4397;SDS011;2213;49.720;7.296;2023-12-14T08:04:06;15.90;;;5.17;;
4397;SDS011;2213;49.720;7.296;2023-12-14T08:06:37;9.00;;;5.00;;
4397;SDS011;2213;49.720;7.296;2023-12-14T08:09:09;6.80;;;4.47;;
4397;SDS011;2213;49.720;7.296;2023-12-14T08:11:37;8.90;;;5.33;;
4397;SDS011;2213;49.720;7.296;2023-12-14T08:14:06;8.30;;;4.60;;
4397;SDS011;2213;49.720;7.296;2023-12-14T08:16:34;10.40;;;5.73;;
4397;SDS011;2213;49.720;7.296;2023-12-14T08:19:03;9.87;;;4.87;;
4397;SDS011;2213;49.720;7.296;2023-12-14T08:21:33;11.43;;;5.00;;
4397;SDS011;2213;49.720;7.296;2023-12-14T08:24:02;6.40;;;4.50;;
4397;SDS011;2213;49.720;7.296;2023-12-14T08:26:32;8.73;;;4.70;;
4397;SDS011;2213;49.720;7.296;2023-12-14T08:29:01;7.67;;;5.10;;
4397;SDS011;2213;49.720;7.296;2023-12-14T08:31:30;9.67;;;5.53;;
4397;SDS011;2213;49.720;7.296;2023-12-14T08:33:58;10.17;;;5.07;;
4397;SDS011;2213;49.720;7.296;2023-12-14T08:36:27;6.53;;;4.60;;
4397;SDS011;2213;49.720;7.296;2023-12-14T08:38:59;7.33;;;5.00;;
4397;SDS011;2213;49.720;7.296;2023-12-14T08:41:28;9.70;;;5.47;;
4397;SDS011;2213;49.720;7.296;2023-12-14T08:43:57;11.13;;;5.20;;
4397;SDS011;2213;49.720;7.296;2023-12-14T08:46:26;7.73;;;4.70;;
4397;SDS011;2213;49.720;7.296;2023-12-14T08:48:55;6.63;;;4.77;;
4397;SDS011;2213;49.720;7.296;2023-12-14T08:51:23;10.50;;;5.20;;
4397;SDS011;2213;49.720;7.296;2023-12-14T08:53:53;6.10;;;4.67;;
4397;SDS011;2213;49.720;7.296;2023-12-14T08:56:23;18.50;;;5.50;;
4397;SDS011;2213;49.720;7.296;2023-12-14T08:58:52;9.30;;;5.30;;
4397;SDS011;2213;49.720;7.296;2023-12-14T09:01:21;7.63;;;4.90;;
4397;SDS011;2213;49.720;7.296;2023-12-14T09:03:51;5.87;;;4.10;;
4397;SDS011;2213;49.720;7.296;2023-12-14T09:06:20;6.07;;;4.37;;
4397;SDS011;2213;49.720;7.296;2023-12-14T09:08:49;8.67;;;4.50;;
4397;SDS011;2213;49.720;7.296;2023-12-14T09:11:17;11.77;;;4.83;;
4397;SDS011;2213;49.720;7.296;2023-12-14T09:13:47;7.67;;;4.73;;
4397;SDS011;2213;49.720;7.296;2023-12-14T09:16:17;5.77;;;3.90;;
4397;SDS011;2213;49.720;7.296;2023-12-14T09:18:48;8.67;;;4.53;;
4397;SDS011;2213;49.720;7.296;2023-12-14T09:21:17;13.60;;;4.60;;
4397;SDS011;2213;49.720;7.296;2023-12-14T09:23:52;7.20;;;3.80;;
4397;SDS011;2213;49.720;7.296;2023-12-14T09:26:21;14.33;;;4.27;;
4397;SDS011;2213;49.720;7.296;2023-12-14T09:28:51;5.13;;;4.27;;
4397;SDS011;2213;49.720;7.296;2023-12-14T09:31:20;5.40;;;4.07;;
4397;SDS011;2213;49.720;7.296;2023-12-14T09:33:49;3.60;;;2.87;;
4397;SDS011;2213;49.720;7.296;2023-12-14T09:36:18;6.27;;;3.20;;
4397;SDS011;2213;49.720;7.296;2023-12-14T09:38:47;6.90;;;4.00;;
4397;SDS011;2213;49.720;7.296;2023-12-14T09:41:15;6.23;;;3.50;;
4397;SDS011;2213;49.720;7.296;2023-12-14T09:43:44;6.43;;;2.80;;
4397;SDS011;2213;49.720;7.296;2023-12-14T09:46:27;3.80;;;3.00;;
4397;SDS011;2213;49.720;7.296;2023-12-14T09:48:58;6.03;;;3.00;;
4397;SDS011;2213;49.720;7.296;2023-12-14T09:51:31;6.93;;;3.80;;
4397;SDS011;2213;49.720;7.296;2023-12-14T09:54:00;5.00;;;3.43;;
4397;SDS011;2213;49.720;7.296;2023-12-14T09:56:29;6.40;;;3.53;;
4397;SDS011;2213;49.720;7.296;2023-12-14T09:58:57;5.60;;;3.20;;
4397;SDS011;2213;49.720;7.296;2023-12-14T10:01:29;5.03;;;3.03;;
4397;SDS011;2213;49.720;7.296;2023-12-14T10:04:07;3.83;;;3.23;;
4397;SDS011;2213;49.720;7.296;2023-12-14T10:06:37;8.53;;;3.10;;
4397;SDS011;2213;49.720;7.296;2023-12-14T10:09:07;4.77;;;2.90;;
4397;SDS011;2213;49.720;7.296;2023-12-14T10:12:01;11.10;;;3.90;;
4397;SDS011;2213;49.720;7.296;2023-12-14T10:14:32;4.20;;;3.00;;
4397;SDS011;2213;49.720;7.296;2023-12-14T10:17:14;7.50;;;3.70;;
4397;SDS011;2213;49.720;7.296;2023-12-14T10:19:46;4.20;;;3.00;;
4397;SDS011;2213;49.720;7.296;2023-12-14T10:22:16;5.00;;;3.53;;
4397;SDS011;2213;49.720;7.296;2023-12-14T10:24:46;4.00;;;3.23;;
4397;SDS011;2213;49.720;7.296;2023-12-14T10:27:16;5.40;;;3.40;;
4397;SDS011;2213;49.720;7.296;2023-12-14T10:29:45;4.93;;;2.77;;
4397;SDS011;2213;49.720;7.296;2023-12-14T10:32:15;4.70;;;3.17;;
4397;SDS011;2213;49.720;7.296;2023-12-14T10:34:45;5.60;;;3.53;;
4397;SDS011;2213;49.720;7.296;2023-12-14T10:37:13;5.60;;;3.60;;
4397;SDS011;2213;49.720;7.296;2023-12-14T10:39:45;4.60;;;2.93;;
4397;SDS011;2213;49.720;7.296;2023-12-14T10:42:17;4.37;;;3.10;;
4397;SDS011;2213;49.720;7.296;2023-12-14T10:44:51;5.20;;;3.30;;
4397;SDS011;2213;49.720;7.296;2023-12-14T10:47:43;5.53;;;4.13;;
4397;SDS011;2213;49.720;7.296;2023-12-14T10:50:14;5.80;;;3.47;;
4397;SDS011;2213;49.720;7.296;2023-12-14T10:52:44;6.13;;;3.20;;
4397;SDS011;2213;49.720;7.296;2023-12-14T10:55:15;3.57;;;2.97;;
4397;SDS011;2213;49.720;7.296;2023-12-14T10:57:52;4.90;;;3.13;;
4397;SDS011;2213;49.720;7.296;2023-12-14T11:00:21;5.23;;;3.27;;
4397;SDS011;2213;49.720;7.296;2023-12-14T11:02:51;5.13;;;3.40;;
4397;SDS011;2213;49.720;7.296;2023-12-14T11:05:21;4.33;;;2.67;;
4397;SDS011;2213;49.720;7.296;2023-12-14T11:07:59;3.50;;;2.77;;
4397;SDS011;2213;49.720;7.296;2023-12-14T11:10:37;3.80;;;2.50;;
4397;SDS011;2213;49.720;7.296;2023-12-14T11:13:07;4.50;;;2.20;;
4397;SDS011;2213;49.720;7.296;2023-12-14T11:15:39;3.07;;;2.13;;
4397;SDS011;2213;49.720;7.296;2023-12-14T11:18:20;3.33;;;2.40;;
4397;SDS011;2213;49.720;7.296;2023-12-14T11:20:55;14.07;;;2.30;;
4397;SDS011;2213;49.720;7.296;2023-12-14T11:23:33;3.17;;;2.13;;
4397;SDS011;2213;49.720;7.296;2023-12-14T11:26:06;3.27;;;2.50;;
4397;SDS011;2213;49.720;7.296;2023-12-14T11:28:38;3.60;;;2.03;;
4397;SDS011;2213;49.720;7.296;2023-12-14T11:31:10;3.30;;;2.13;;
4397;SDS011;2213;49.720;7.296;2023-12-14T11:33:41;2.90;;;2.03;;
4397;SDS011;2213;49.720;7.296;2023-12-14T11:36:11;4.47;;;2.23;;
4397;SDS011;2213;49.720;7.296;2023-12-14T11:38:41;3.40;;;2.23;;
4397;SDS011;2213;49.720;7.296;2023-12-14T11:41:10;2.70;;;2.10;;
4397;SDS011;2213;49.720;7.296;2023-12-14T11:43:40;12.63;;;2.60;;
4397;SDS011;2213;49.720;7.296;2023-12-14T11:46:10;3.80;;;1.83;;
4397;SDS011;2213;49.720;7.296;2023-12-14T11:48:38;2.10;;;1.90;;
4397;SDS011;2213;49.720;7.296;2023-12-14T11:51:11;2.70;;;2.03;;
4397;SDS011;2213;49.720;7.296;2023-12-14T11:53:40;2.47;;;1.73;;
4397;SDS011;2213;49.720;7.296;2023-12-14T11:56:11;3.17;;;2.10;;
4397;SDS011;2213;49.720;7.296;2023-12-14T11:58:41;2.60;;;1.97;;
4397;SDS011;2213;49.720;7.296;2023-12-14T12:01:12;2.80;;;1.77;;
4397;SDS011;2213;49.720;7.296;2023-12-14T12:03:44;3.80;;;2.17;;
4397;SDS011;2213;49.720;7.296;2023-12-14T12:06:19;3.20;;;1.70;;
4397;SDS011;2213;49.720;7.296;2023-12-14T12:08:50;1.87;;;1.50;;
4397;SDS011;2213;49.720;7.296;2023-12-14T12:11:20;3.23;;;1.97;;
4397;SDS011;2213;49.720;7.296;2023-12-14T12:13:51;3.10;;;1.80;;
4397;SDS011;2213;49.720;7.296;2023-12-14T12:16:21;2.30;;;1.70;;
4397;SDS011;2213;49.720;7.296;2023-12-14T12:18:53;3.93;;;2.00;;
4397;SDS011;2213;49.720;7.296;2023-12-14T12:21:21;2.50;;;1.50;;
4397;SDS011;2213;49.720;7.296;2023-12-14T12:23:51;2.27;;;1.50;;
4397;SDS011;2213;49.720;7.296;2023-12-14T12:26:19;3.00;;;1.77;;
4397;SDS011;2213;49.720;7.296;2023-12-14T12:28:48;1.70;;;1.50;;
4397;SDS011;2213;49.720;7.296;2023-12-14T12:31:16;1.93;;;1.40;;
4397;SDS011;2213;49.720;7.296;2023-12-14T12:33:45;1.50;;;1.30;;
4397;SDS011;2213;49.720;7.296;2023-12-14T12:36:15;2.23;;;1.73;;
4397;SDS011;2213;49.720;7.296;2023-12-14T12:38:44;1.63;;;1.43;;
4397;SDS011;2213;49.720;7.296;2023-12-14T12:41:12;2.43;;;1.80;;
4397;SDS011;2213;49.720;7.296;2023-12-14T12:43:41;1.60;;;1.50;;
4397;SDS011;2213;49.720;7.296;2023-12-14T12:46:10;1.53;;;1.20;;
4397;SDS011;2213;49.720;7.296;2023-12-14T12:48:39;2.70;;;1.20;;
4397;SDS011;2213;49.720;7.296;2023-12-14T12:51:07;1.60;;;1.43;;
4397;SDS011;2213;49.720;7.296;2023-12-14T12:53:37;1.80;;;1.33;;
4397;SDS011;2213;49.720;7.296;2023-12-14T12:56:06;1.67;;;1.43;;
4397;SDS011;2213;49.720;7.296;2023-12-14T12:58:35;1.27;;;1.17;;
4397;SDS011;2213;49.720;7.296;2023-12-14T13:01:04;4.07;;;1.33;;
4397;SDS011;2213;49.720;7.296;2023-12-14T13:03:33;1.70;;;1.60;;
4397;SDS011;2213;49.720;7.296;2023-12-14T13:06:02;1.23;;;1.10;;
4397;SDS011;2213;49.720;7.296;2023-12-14T13:08:31;1.57;;;1.40;;
4397;SDS011;2213;49.720;7.296;2023-12-14T13:11:00;1.40;;;1.10;;
4397;SDS011;2213;49.720;7.296;2023-12-14T13:13:29;1.80;;;1.10;;
4397;SDS011;2213;49.720;7.296;2023-12-14T13:15:58;1.83;;;1.13;;
4397;SDS011;2213;49.720;7.296;2023-12-14T13:18:26;2.00;;;1.30;;
4397;SDS011;2213;49.720;7.296;2023-12-14T13:20:55;1.57;;;1.23;;
4397;SDS011;2213;49.720;7.296;2023-12-14T13:23:24;1.43;;;1.33;;
4397;SDS011;2213;49.720;7.296;2023-12-14T13:25:53;1.43;;;1.20;;
4397;SDS011;2213;49.720;7.296;2023-12-14T13:28:23;1.30;;;1.20;;
4397;SDS011;2213;49.720;7.296;2023-12-14T13:30:52;1.60;;;1.33;;
4397;SDS011;2213;49.720;7.296;2023-12-14T13:33:21;1.63;;;1.53;;
4397;SDS011;2213;49.720;7.296;2023-12-14T13:35:54;1.30;;;1.20;;
4397;SDS011;2213;49.720;7.296;2023-12-14T13:38:22;1.90;;;1.30;;
4397;SDS011;2213;49.720;7.296;2023-12-14T13:40:51;1.50;;;1.40;;
4397;SDS011;2213;49.720;7.296;2023-12-14T13:43:20;1.20;;;1.00;;
4397;SDS011;2213;49.720;7.296;2023-12-14T13:45:50;3.03;;;1.40;;
4397;SDS011;2213;49.720;7.296;2023-12-14T13:48:42;2.80;;;1.37;;
4397;SDS011;2213;49.720;7.296;2023-12-14T13:51:14;3.07;;;1.17;;
4397;SDS011;2213;49.720;7.296;2023-12-14T13:53:42;2.10;;;1.10;;
4397;SDS011;2213;49.720;7.296;2023-12-14T13:56:11;1.10;;;1.00;;
4397;SDS011;2213;49.720;7.296;2023-12-14T13:58:40;1.30;;;1.00;;
4397;SDS011;2213;49.720;7.296;2023-12-14T14:01:10;1.27;;;1.10;;
4397;SDS011;2213;49.720;7.296;2023-12-14T14:03:40;1.57;;;1.17;;
4397;SDS011;2213;49.720;7.296;2023-12-14T14:06:10;1.53;;;1.17;;
4397;SDS011;2213;49.720;7.296;2023-12-14T14:08:38;1.40;;;1.30;;
4397;SDS011;2213;49.720;7.296;2023-12-14T14:11:07;3.87;;;1.30;;
4397;SDS011;2213;49.720;7.296;2023-12-14T14:13:48;1.17;;;1.03;;
4397;SDS011;2213;49.720;7.296;2023-12-14T14:16:18;1.47;;;1.37;;
4397;SDS011;2213;49.720;7.296;2023-12-14T14:18:50;1.80;;;1.30;;
4397;SDS011;2213;49.720;7.296;2023-12-14T14:21:19;1.00;;;0.90;;
4397;SDS011;2213;49.720;7.296;2023-12-14T14:23:47;0.87;;;0.83;;
4397;SDS011;2213;49.720;7.296;2023-12-14T14:26:18;0.90;;;0.90;;
4397;SDS011;2213;49.720;7.296;2023-12-14T14:28:55;0.90;;;0.80;;
4397;SDS011;2213;49.720;7.296;2023-12-14T14:31:29;1.10;;;1.00;;
4397;SDS011;2213;49.720;7.296;2023-12-14T14:33:59;1.40;;;1.17;;
4397;SDS011;2213;49.720;7.296;2023-12-14T14:36:28;1.00;;;0.90;;
4397;SDS011;2213;49.720;7.296;2023-12-14T14:38:57;1.37;;;0.90;;
4397;SDS011;2213;49.720;7.296;2023-12-14T14:41:25;0.90;;;0.80;;
4397;SDS011;2213;49.720;7.296;2023-12-14T14:43:54;1.00;;;0.90;;
4397;SDS011;2213;49.720;7.296;2023-12-14T14:46:23;1.67;;;1.00;;
4397;SDS011;2213;49.720;7.296;2023-12-14T14:48:53;2.00;;;1.10;;
4397;SDS011;2213;49.720;7.296;2023-12-14T14:51:22;1.40;;;0.97;;
4397;SDS011;2213;49.720;7.296;2023-12-14T14:53:51;1.03;;;0.80;;
4397;SDS011;2213;49.720;7.296;2023-12-14T14:56:20;1.00;;;0.90;;
4397;SDS011;2213;49.720;7.296;2023-12-14T14:58:49;1.20;;;1.00;;
4397;SDS011;2213;49.720;7.296;2023-12-14T15:01:18;1.30;;;1.00;;
4397;SDS011;2213;49.720;7.296;2023-12-14T15:03:46;2.10;;;0.93;;
4397;SDS011;2213;49.720;7.296;2023-12-14T15:06:16;1.23;;;1.10;;
4397;SDS011;2213;49.720;7.296;2023-12-14T15:08:45;1.67;;;1.40;;
4397;SDS011;2213;49.720;7.296;2023-12-14T15:11:13;1.30;;;1.07;;
4397;SDS011;2213;49.720;7.296;2023-12-14T15:13:43;1.50;;;1.23;;
4397;SDS011;2213;49.720;7.296;2023-12-14T15:16:12;1.87;;;1.10;;
4397;SDS011;2213;49.720;7.296;2023-12-14T15:18:40;2.43;;;1.77;;
4397;SDS011;2213;49.720;7.296;2023-12-14T15:21:09;3.03;;;1.37;;
4397;SDS011;2213;49.720;7.296;2023-12-14T15:23:43;1.23;;;1.10;;
4397;SDS011;2213;49.720;7.296;2023-12-14T15:26:14;1.20;;;1.10;;
4397;SDS011;2213;49.720;7.296;2023-12-14T15:28:43;1.17;;;1.07;;